createdAt,value
2023-02-04T00:01:01.574Z,87.17
2023-02-04T00:06:03.565Z,87.26
2023-02-04T00:11:05.828Z,86.75
2023-02-04T00:16:07.751Z,86.18
2023-02-04T00:21:09.641Z,86.11
2023-02-04T00:26:13.604Z,85.81
2023-02-04T00:31:15.552Z,85.41
2023-02-04T00:36:17.418Z,85.28
2023-02-04T00:41:19.542Z,85.07
2023-02-04T00:46:21.400Z,85.18
2023-02-04T00:51:23.338Z,84.41
2023-02-04T00:56:25.148Z,84.13
2023-02-04T01:01:26.892Z,83.78
2023-02-04T01:06:28.840Z,83.53
2023-02-04T01:11:36.662Z,83.44
2023-02-04T01:16:41.595Z,82.90
2023-02-04T01:21:43.492Z,83.01
2023-02-04T01:26:46.346Z,82.53
2023-02-04T01:31:48.375Z,82.26
2023-02-04T01:36:50.280Z,82.46
2023-02-04T01:41:52.656Z,82.37
2023-02-04T01:46:55.084Z,82.07
2023-02-04T01:51:57.539Z,81.81
2023-02-04T01:56:59.415Z,81.58
2023-02-04T02:02:01.448Z,81.52
2023-02-04T02:07:06.707Z,81.48
2023-02-04T02:12:09.079Z,81.41
2023-02-04T02:17:10.939Z,81.64
2023-02-04T02:22:34.617Z,81.52
2023-02-04T02:27:37.433Z,81.51
2023-02-04T02:32:42.218Z,81.36
2023-02-04T02:37:44.466Z,81.20
2023-02-04T02:42:52.104Z,81.04
2023-02-04T02:47:59.594Z,81.12
2023-02-04T02:53:01.620Z,80.98
2023-02-04T02:58:16.151Z,80.85
2023-02-04T03:03:22.391Z,80.71
2023-02-04T03:08:24.726Z,80.70
2023-02-04T03:13:26.903Z,80.53
2023-02-04T03:18:29.276Z,80.71
2023-02-04T03:23:33.878Z,80.67
2023-02-04T03:28:40.940Z,80.42
2023-02-04T03:33:43.887Z,80.23
2023-02-04T03:38:45.716Z,80.29
2023-02-04T03:43:47.499Z,80.45
2023-02-04T03:48:49.841Z,80.33
2023-02-04T03:53:51.619Z,80.25
2023-02-04T03:58:53.622Z,80.34
2023-02-04T04:03:55.436Z,80.25
2023-02-04T04:08:57.300Z,80.52
2023-02-04T04:13:59.317Z,80.53
2023-02-04T04:19:01.243Z,80.38
2023-02-04T04:24:04.344Z,80.55
2023-02-04T04:29:06.256Z,79.98
2023-02-04T04:34:08.170Z,79.79
2023-02-04T04:39:10.085Z,80.21
2023-02-04T04:44:11.968Z,79.95
2023-02-04T04:49:13.895Z,80.04
2023-02-04T04:54:16.039Z,80.05
2023-02-04T04:59:17.818Z,79.91
2023-02-04T05:04:19.675Z,79.78
2023-02-04T05:09:21.533Z,79.67
2023-02-04T05:14:23.381Z,79.89
2023-02-04T05:19:25.179Z,79.79
2023-02-04T05:24:28.140Z,79.69
2023-02-04T05:29:30.082Z,79.83
2023-02-04T05:34:31.899Z,79.72
2023-02-04T05:39:33.753Z,79.61
2023-02-04T05:44:35.789Z,79.75
2023-02-04T05:49:37.650Z,79.58
2023-02-04T05:54:39.538Z,79.65
2023-02-04T05:59:41.364Z,79.56
2023-02-04T06:04:44.829Z,79.40
2023-02-04T06:09:46.788Z,79.21
2023-02-04T06:14:48.612Z,79.24
2023-02-04T06:19:50.395Z,79.16
2023-02-04T06:24:52.251Z,78.97
2023-02-04T06:29:54.392Z,79.29
2023-02-04T06:34:56.197Z,79.18
2023-02-04T06:39:58.260Z,79.05
2023-02-04T06:45:00.268Z,78.94
2023-02-04T06:50:02.063Z,79.09
2023-02-04T06:55:04.184Z,78.89
2023-02-04T07:00:09.085Z,79.09
2023-02-04T07:05:10.872Z,79.00
2023-02-04T07:10:13.353Z,78.70
2023-02-04T07:15:15.459Z,78.55
2023-02-04T07:20:17.629Z,78.66
2023-02-04T07:25:19.694Z,78.73
2023-02-04T07:30:21.492Z,78.82
2023-02-04T07:35:24.326Z,78.88
2023-02-04T07:40:26.098Z,78.76
2023-02-04T07:45:28.033Z,78.77
2023-02-04T07:50:29.935Z,78.87
2023-02-04T07:55:32.073Z,78.86
2023-02-04T08:00:34.434Z,78.80
2023-02-04T08:05:36.510Z,78.80
2023-02-04T08:10:38.374Z,78.94
2023-02-04T08:15:40.202Z,78.92
2023-02-04T08:20:41.958Z,78.92
2023-02-04T08:25:45.628Z,79.18
2023-02-04T08:30:47.698Z,79.15
2023-02-04T08:35:50.469Z,79.26
2023-02-04T08:40:52.478Z,79.12
2023-02-04T08:45:54.340Z,79.17
2023-02-04T08:50:56.258Z,79.29
2023-02-04T08:55:58.323Z,79.43
2023-02-04T09:01:00.263Z,79.34
2023-02-04T09:06:02.218Z,79.47
2023-02-04T09:11:04.577Z,79.43
2023-02-04T09:16:06.809Z,79.45
2023-02-04T09:21:08.708Z,79.31
2023-02-04T09:26:10.703Z,79.08
2023-02-04T09:31:12.782Z,79.28
2023-02-04T09:36:14.958Z,79.51
2023-02-04T09:41:16.839Z,79.27
2023-02-04T09:46:24.197Z,79.37
2023-02-04T09:51:29.319Z,79.09
2023-02-04T09:56:31.374Z,79.44
2023-02-04T10:01:33.271Z,79.25
2023-02-04T10:06:35.205Z,78.98
2023-02-04T10:11:41.881Z,79.30
2023-02-04T10:16:51.066Z,79.07
2023-02-04T10:21:52.887Z,79.24
2023-02-04T10:26:55.014Z,79.05
2023-02-04T10:31:57.061Z,79.00
2023-02-04T10:36:58.977Z,79.25
2023-02-04T10:42:01.292Z,79.22
2023-02-04T10:47:24.884Z,79.31
2023-02-04T10:52:49.687Z,79.10
2023-02-04T10:57:52.992Z,79.19
2023-02-04T11:03:02.376Z,79.14
2023-02-04T11:08:19.624Z,79.25
2023-02-04T11:13:28.484Z,78.99
2023-02-04T11:18:30.990Z,78.67
2023-02-04T11:23:34.957Z,78.92
2023-02-04T11:28:48.888Z,78.85
2023-02-04T11:34:03.170Z,79.07
2023-02-04T11:39:16.471Z,78.89
2023-02-04T11:44:19.626Z,78.91
2023-02-04T11:49:23.976Z,78.72
2023-02-04T11:54:25.763Z,78.82
2023-02-04T11:59:27.727Z,78.71
2023-02-04T12:04:29.608Z,78.53
2023-02-04T12:09:32.399Z,78.22
2023-02-04T12:14:36.914Z,78.63
2023-02-04T12:19:38.773Z,78.55
2023-02-04T12:24:40.574Z,78.72
2023-02-04T12:29:42.322Z,78.22
2023-02-04T12:34:44.135Z,78.06
2023-02-04T12:39:45.849Z,78.14
2023-02-04T12:44:47.604Z,77.97
2023-02-04T12:49:49.519Z,78.14
2023-02-04T12:54:51.349Z,77.93
2023-02-04T12:59:53.277Z,77.94
2023-02-04T13:04:55.204Z,77.89
2023-02-04T13:09:57.622Z,77.51
2023-02-04T13:14:59.428Z,77.17
2023-02-04T13:20:01.398Z,77.13
2023-02-04T13:25:04.237Z,77.13
2023-02-04T13:30:08.052Z,76.98
2023-02-04T13:35:10.019Z,76.71
2023-02-04T13:40:12.381Z,77.00
2023-02-04T13:45:16.328Z,76.88
2023-02-04T13:50:18.336Z,76.79
2023-02-04T13:55:20.168Z,76.39
2023-02-04T14:00:22.227Z,76.31
2023-02-04T14:05:25.235Z,76.13
2023-02-04T14:10:27.197Z,75.92
2023-02-04T14:15:29.013Z,75.97
2023-02-04T14:20:31.900Z,75.73
2023-02-04T14:25:34.019Z,75.84
2023-02-04T14:30:36.408Z,76.07
2023-02-04T14:35:38.383Z,75.97
2023-02-04T14:40:40.233Z,75.78
2023-02-04T14:45:42.201Z,75.31
2023-02-04T14:50:44.104Z,75.00
2023-02-04T14:55:48.804Z,75.30
2023-02-04T15:00:50.700Z,75.09
2023-02-04T15:05:52.592Z,75.22
2023-02-04T15:10:54.468Z,75.02
2023-02-04T15:15:56.771Z,74.57
2023-02-04T15:20:58.724Z,74.35
2023-02-04T15:26:00.535Z,73.84
2023-02-04T15:31:04.416Z,74.16
2023-02-04T15:36:06.870Z,73.87
2023-02-04T15:41:08.730Z,74.08
2023-02-04T15:46:10.833Z,74.08
2023-02-04T15:51:12.941Z,74.21
2023-02-04T15:56:14.782Z,74.25
2023-02-04T16:01:16.768Z,74.08
2023-02-04T16:06:18.589Z,74.24
2023-02-04T16:11:20.402Z,74.42
2023-02-04T16:16:22.355Z,74.44
2023-02-04T16:21:24.301Z,74.37
2023-02-04T16:26:26.354Z,74.46
2023-02-04T16:31:28.297Z,74.26
2023-02-04T16:36:30.254Z,74.64
2023-02-04T16:41:32.574Z,74.24
2023-02-04T16:46:34.573Z,74.38
2023-02-04T16:51:36.418Z,74.45
2023-02-04T16:56:38.218Z,74.46
2023-02-04T17:01:40.217Z,74.51
2023-02-04T17:06:43.107Z,74.33
2023-02-04T17:11:45.686Z,74.20
2023-02-04T17:16:48.568Z,74.40
2023-02-04T17:21:50.443Z,74.47
2023-02-04T17:26:52.224Z,74.43
2023-02-04T17:31:54.290Z,74.38
2023-02-04T17:36:56.859Z,74.25
2023-02-04T17:41:58.722Z,74.16
2023-02-04T17:47:00.604Z,74.11
2023-02-04T17:52:02.650Z,74.09
2023-02-04T17:57:30.911Z,74.01
2023-02-04T18:02:32.973Z,73.60
2023-02-04T18:07:35.736Z,73.72
2023-02-04T18:12:37.470Z,73.93
2023-02-04T18:17:39.324Z,73.93
2023-02-04T18:22:41.129Z,73.74
2023-02-04T18:27:43.000Z,73.92
2023-02-04T18:32:44.778Z,74.04
2023-02-04T18:37:49.755Z,73.93
2023-02-04T18:43:02.764Z,74.01
2023-02-04T18:48:19.592Z,74.14
2023-02-04T18:53:26.944Z,73.98
2023-02-04T18:58:31.267Z,73.92
2023-02-04T19:03:42.108Z,73.90
2023-02-04T19:08:45.346Z,73.96
2023-02-04T19:13:48.904Z,74.10
2023-02-04T19:18:52.783Z,73.92
2023-02-04T19:24:17.231Z,73.98
2023-02-04T19:29:22.565Z,74.09
2023-02-04T19:34:26.237Z,74.25
2023-02-04T19:39:38.546Z,74.07
2023-02-04T19:44:46.703Z,74.06
2023-02-04T19:49:48.438Z,74.20
2023-02-04T19:54:50.183Z,74.08
2023-02-04T19:59:56.880Z,74.18
2023-02-04T20:05:00.344Z,74.19
2023-02-04T20:10:26.176Z,74.05
2023-02-04T20:15:28.269Z,74.10
2023-02-04T20:20:32.571Z,74.02
2023-02-04T20:25:40.359Z,74.09
2023-02-04T20:30:42.647Z,74.07
2023-02-04T20:35:44.419Z,74.18
2023-02-04T20:40:46.975Z,73.98
2023-02-04T20:46:03.270Z,74.10
2023-02-04T20:51:15.191Z,73.82
2023-02-04T20:56:30.314Z,73.93
2023-02-04T21:01:35.196Z,73.85
2023-02-04T21:06:37.178Z,73.99
2023-02-04T21:11:39.020Z,73.91
2023-02-04T21:16:40.891Z,73.69
2023-02-04T21:21:42.938Z,73.27
2023-02-04T21:26:44.802Z,72.95
2023-02-04T21:31:46.753Z,73.12
2023-02-04T21:36:48.701Z,72.98
2023-02-04T21:42:10.626Z,72.93
2023-02-04T21:47:13.800Z,72.76
2023-02-04T21:52:15.814Z,72.58
2023-02-04T21:57:17.651Z,72.69
2023-02-04T22:02:19.699Z,72.32
2023-02-04T22:07:21.675Z,72.55
2023-02-04T22:12:23.539Z,72.41
2023-02-04T22:17:25.697Z,72.43
2023-02-04T22:22:27.630Z,72.38
2023-02-04T22:27:29.667Z,72.31
2023-02-04T22:32:31.531Z,72.28
2023-02-04T22:37:33.486Z,72.09
2023-02-04T22:42:35.415Z,72.08
2023-02-04T22:47:37.475Z,71.92
2023-02-04T22:52:39.322Z,71.83
2023-02-04T22:57:41.148Z,71.41
2023-02-04T23:02:42.999Z,71.56
2023-02-04T23:07:44.899Z,71.62
2023-02-04T23:12:47.078Z,71.64
2023-02-04T23:17:48.935Z,71.65
2023-02-04T23:22:50.704Z,71.73
2023-02-04T23:27:52.545Z,71.61
2023-02-04T23:32:54.408Z,71.64
2023-02-04T23:37:56.248Z,71.62
2023-02-04T23:42:58.127Z,71.55
2023-02-04T23:48:00.155Z,71.58
2023-02-04T23:53:01.944Z,71.44
2023-02-04T23:58:03.822Z,71.40
